sensor_id;sensor_type;location;lat;lon;timestamp;pressure;altitude;pressure_sealevel;temperature;humidity
46211;BME280;52144;48.040;-1.594;2023-07-22T00:00:22;101282.69;;;19.26;76.08
46211;BME280;52144;48.040;-1.594;2023-07-22T00:02:50;101270.78;;;19.29;77.59
46211;BME280;52144;48.040;-1.594;2023-07-22T00:05:18;101284.63;;;19.61;75.78
46211;BME280;52144;48.040;-1.594;2023-07-22T00:07:51;101282.44;;;19.90;73.25
46211;BME280;52144;48.040;-1.594;2023-07-22T00:10:19;101279.63;;;19.92;72.20
46211;BME280;52144;48.040;-1.594;2023-07-22T00:12:47;101279.91;;;19.76;70.05
46211;BME280;52144;48.040;-1.594;2023-07-22T00:15:14;101283.41;;;19.41;71.57
46211;BME280;52144;48.040;-1.594;2023-07-22T00:17:42;101281.69;;;18.90;74.20
46211;BME280;52144;48.040;-1.594;2023-07-22T00:20:10;101277.38;;;18.62;74.81
46211;BME280;52144;48.040;-1.594;2023-07-22T00:22:38;101278.66;;;18.43;75.83
46211;BME280;52144;48.040;-1.594;2023-07-22T00:25:10;101284.94;;;18.44;75.81
46211;BME280;52144;48.040;-1.594;2023-07-22T00:27:39;101279.22;;;18.49;75.60
46211;BME280;52144;48.040;-1.594;2023-07-22T00:30:07;101272.41;;;18.30;75.13
46211;BME280;52144;48.040;-1.594;2023-07-22T00:32:35;101281.22;;;18.07;77.95
46211;BME280;52144;48.040;-1.594;2023-07-22T00:35:05;101275.50;;;17.98;78.02
46211;BME280;52144;48.040;-1.594;2023-07-22T00:37:33;101277.66;;;17.93;76.92
46211;BME280;52144;48.040;-1.594;2023-07-22T00:40:02;101279.28;;;17.96;77.08
46211;BME280;52144;48.040;-1.594;2023-07-22T00:42:33;101269.34;;;17.96;77.72
46211;BME280;52144;48.040;-1.594;2023-07-22T00:45:01;101272.69;;;17.87;78.25
46211;BME280;52144;48.040;-1.594;2023-07-22T00:47:29;101267.91;;;17.91;77.15
46211;BME280;52144;48.040;-1.594;2023-07-22T00:49:57;101274.78;;;17.82;78.39
46211;BME280;52144;48.040;-1.594;2023-07-22T00:52:27;101266.03;;;17.78;79.90
46211;BME280;52144;48.040;-1.594;2023-07-22T00:54:55;101265.13;;;18.05;78.44
46211;BME280;52144;48.040;-1.594;2023-07-22T00:57:23;101269.88;;;17.74;79.36
46211;BME280;52144;48.040;-1.594;2023-07-22T00:59:52;101261.38;;;17.68;79.88
46211;BME280;52144;48.040;-1.594;2023-07-22T01:02:20;101259.06;;;17.89;78.35
46211;BME280;52144;48.040;-1.594;2023-07-22T01:04:49;101261.69;;;17.63;78.94
46211;BME280;52144;48.040;-1.594;2023-07-22T01:07:17;101254.69;;;18.00;78.84
46211;BME280;52144;48.040;-1.594;2023-07-22T01:09:45;101256.63;;;17.98;77.30
46211;BME280;52144;48.040;-1.594;2023-07-22T01:12:13;101258.88;;;17.92;78.96
46211;BME280;52144;48.040;-1.594;2023-07-22T01:14:41;101259.13;;;18.14;78.39
46211;BME280;52144;48.040;-1.594;2023-07-22T01:17:11;101261.06;;;17.99;77.23
46211;BME280;52144;48.040;-1.594;2023-07-22T01:19:40;101255.31;;;17.91;79.34
46211;BME280;52144;48.040;-1.594;2023-07-22T01:22:07;101254.91;;;18.10;78.58
46211;BME280;52144;48.040;-1.594;2023-07-22T01:24:37;101246.50;;;18.02;77.38
46211;BME280;52144;48.040;-1.594;2023-07-22T01:27:07;101247.56;;;17.99;77.74
46211;BME280;52144;48.040;-1.594;2023-07-22T01:29:36;101240.44;;;17.86;78.82
46211;BME280;52144;48.040;-1.594;2023-07-22T01:32:05;101238.50;;;17.88;78.23
46211;BME280;52144;48.040;-1.594;2023-07-22T01:34:33;101237.81;;;17.84;80.56
46211;BME280;52144;48.040;-1.594;2023-07-22T01:37:01;101242.38;;;17.96;77.90
46211;BME280;52144;48.040;-1.594;2023-07-22T01:39:31;101236.31;;;17.93;79.04
46211;BME280;52144;48.040;-1.594;2023-07-22T01:42:00;101249.09;;;18.03;78.33
46211;BME280;52144;48.040;-1.594;2023-07-22T01:44:28;101241.66;;;17.80;76.73
46211;BME280;52144;48.040;-1.594;2023-07-22T01:46:56;101243.56;;;17.65;79.06
46211;BME280;52144;48.040;-1.594;2023-07-22T01:49:23;101249.06;;;17.63;80.04
46211;BME280;52144;48.040;-1.594;2023-07-22T01:51:51;101236.00;;;17.57;79.92
46211;BME280;52144;48.040;-1.594;2023-07-22T01:54:19;101239.28;;;17.48;80.15
46211;BME280;52144;48.040;-1.594;2023-07-22T01:56:47;101236.81;;;17.45;81.17
46211;BME280;52144;48.040;-1.594;2023-07-22T01:59:16;101238.28;;;17.63;78.18
46211;BME280;52144;48.040;-1.594;2023-07-22T02:01:44;101231.84;;;17.39;78.69
46211;BME280;52144;48.040;-1.594;2023-07-22T02:04:12;101236.13;;;17.29;81.46
46211;BME280;52144;48.040;-1.594;2023-07-22T02:06:40;101236.97;;;17.29;81.03
46211;BME280;52144;48.040;-1.594;2023-07-22T02:09:07;101234.59;;;17.24;80.10
46211;BME280;52144;48.040;-1.594;2023-07-22T02:11:36;101241.28;;;17.32;81.05
46211;BME280;52144;48.040;-1.594;2023-07-22T02:14:04;101237.41;;;17.36;81.45
46211;BME280;52144;48.040;-1.594;2023-07-22T02:16:35;101237.28;;;17.52;79.62
46211;BME280;52144;48.040;-1.594;2023-07-22T02:19:04;101236.59;;;17.48;78.55
46211;BME280;52144;48.040;-1.594;2023-07-22T02:21:32;101229.38;;;17.21;79.26
46211;BME280;52144;48.040;-1.594;2023-07-22T02:24:00;101229.53;;;17.05;80.73
46211;BME280;52144;48.040;-1.594;2023-07-22T02:26:27;101235.03;;;17.04;80.51
46211;BME280;52144;48.040;-1.594;2023-07-22T02:28:56;101232.75;;;16.98;81.49
46211;BME280;52144;48.040;-1.594;2023-07-22T02:31:23;101235.00;;;17.18;80.69
46211;BME280;52144;48.040;-1.594;2023-07-22T02:33:53;101227.81;;;17.32;78.07
46211;BME280;52144;48.040;-1.594;2023-07-22T02:36:21;101221.19;;;16.96;79.50
46211;BME280;52144;48.040;-1.594;2023-07-22T02:38:48;101235.25;;;16.87;80.73
46211;BME280;52144;48.040;-1.594;2023-07-22T02:41:16;101236.59;;;16.94;80.20
46211;BME280;52144;48.040;-1.594;2023-07-22T02:43:44;101233.00;;;17.08;79.59
46211;BME280;52144;48.040;-1.594;2023-07-22T02:46:12;101226.16;;;17.16;79.30
46211;BME280;52144;48.040;-1.594;2023-07-22T02:48:40;101219.38;;;17.23;79.34
46211;BME280;52144;48.040;-1.594;2023-07-22T02:51:10;101226.25;;;17.42;78.49
46211;BME280;52144;48.040;-1.594;2023-07-22T02:53:38;101220.44;;;17.21;78.87
46211;BME280;52144;48.040;-1.594;2023-07-22T02:56:07;101218.25;;;17.13;78.28
46211;BME280;52144;48.040;-1.594;2023-07-22T02:58:35;101226.00;;;16.91;78.90
46211;BME280;52144;48.040;-1.594;2023-07-22T03:01:03;101227.38;;;16.69;80.94
46211;BME280;52144;48.040;-1.594;2023-07-22T03:03:32;101232.44;;;16.74;80.75
46211;BME280;52144;48.040;-1.594;2023-07-22T03:06:00;101222.34;;;16.77;80.96
46211;BME280;52144;48.040;-1.594;2023-07-22T03:08:29;101223.91;;;16.81;79.46
46211;BME280;52144;48.040;-1.594;2023-07-22T03:10:57;101223.97;;;16.80;80.47
46211;BME280;52144;48.040;-1.594;2023-07-22T03:13:25;101224.94;;;16.79;80.47
46211;BME280;52144;48.040;-1.594;2023-07-22T03:15:56;101225.22;;;16.74;79.46
46211;BME280;52144;48.040;-1.594;2023-07-22T03:18:25;101219.56;;;16.64;80.66
46211;BME280;52144;48.040;-1.594;2023-07-22T03:20:52;101215.72;;;16.69;80.75
46211;BME280;52144;48.040;-1.594;2023-07-22T03:23:20;101220.53;;;16.63;81.92
46211;BME280;52144;48.040;-1.594;2023-07-22T03:25:49;101219.84;;;16.74;82.18
46211;BME280;52144;48.040;-1.594;2023-07-22T03:28:17;101209.75;;;16.78;81.63
46211;BME280;52144;48.040;-1.594;2023-07-22T03:30:45;101218.31;;;16.70;83.16
46211;BME280;52144;48.040;-1.594;2023-07-22T03:33:13;101209.47;;;16.68;82.22
46211;BME280;52144;48.040;-1.594;2023-07-22T03:35:41;101208.31;;;16.72;82.92
46211;BME280;52144;48.040;-1.594;2023-07-22T03:38:09;101208.69;;;16.80;82.37
46211;BME280;52144;48.040;-1.594;2023-07-22T03:40:37;101214.28;;;16.92;81.46
46211;BME280;52144;48.040;-1.594;2023-07-22T03:43:06;101209.56;;;16.81;81.42
46211;BME280;52144;48.040;-1.594;2023-07-22T03:45:34;101214.88;;;16.82;82.44
46211;BME280;52144;48.040;-1.594;2023-07-22T03:48:02;101218.16;;;16.88;81.17
46211;BME280;52144;48.040;-1.594;2023-07-22T03:50:30;101216.69;;;16.96;81.19
46211;BME280;52144;48.040;-1.594;2023-07-22T03:52:58;101220.03;;;17.00;80.51
46211;BME280;52144;48.040;-1.594;2023-07-22T03:55:26;101219.66;;;16.77;79.95
46211;BME280;52144;48.040;-1.594;2023-07-22T03:57:54;101220.06;;;16.71;81.81
46211;BME280;52144;48.040;-1.594;2023-07-22T04:00:23;101222.25;;;16.64;82.43
46211;BME280;52144;48.040;-1.594;2023-07-22T04:02:51;101225.25;;;16.60;81.39
46211;BME280;52144;48.040;-1.594;2023-07-22T04:05:19;101228.91;;;16.59;81.74
46211;BME280;52144;48.040;-1.594;2023-07-22T04:07:47;101224.28;;;16.75;79.61
46211;BME280;52144;48.040;-1.594;2023-07-22T04:10:15;101230.81;;;16.71;80.78
46211;BME280;52144;48.040;-1.594;2023-07-22T04:12:42;101223.72;;;16.41;81.71
46211;BME280;52144;48.040;-1.594;2023-07-22T04:15:10;101228.31;;;16.39;82.10
46211;BME280;52144;48.040;-1.594;2023-07-22T04:17:40;101229.00;;;16.43;82.08
46211;BME280;52144;48.040;-1.594;2023-07-22T04:20:09;101225.34;;;16.58;82.05
46211;BME280;52144;48.040;-1.594;2023-07-22T04:22:37;101222.56;;;16.60;80.69
46211;BME280;52144;48.040;-1.594;2023-07-22T04:25:05;101223.53;;;16.44;82.76
46211;BME280;52144;48.040;-1.594;2023-07-22T04:27:34;101223.72;;;16.56;82.71
46211;BME280;52144;48.040;-1.594;2023-07-22T04:30:02;101230.81;;;16.71;83.03
46211;BME280;52144;48.040;-1.594;2023-07-22T04:32:30;101225.72;;;16.81;82.08
46211;BME280;52144;48.040;-1.594;2023-07-22T04:34:59;101231.00;;;16.82;82.52
46211;BME280;52144;48.040;-1.594;2023-07-22T04:37:27;101231.38;;;16.91;82.16
46211;BME280;52144;48.040;-1.594;2023-07-22T04:39:55;101228.78;;;16.89;80.79
46211;BME280;52144;48.040;-1.594;2023-07-22T04:42:23;101228.59;;;16.92;81.50
46211;BME280;52144;48.040;-1.594;2023-07-22T04:44:52;101223.63;;;16.86;81.15
46211;BME280;52144;48.040;-1.594;2023-07-22T04:47:20;101231.09;;;16.81;83.58
46211;BME280;52144;48.040;-1.594;2023-07-22T04:49:47;101227.06;;;16.88;83.72
46211;BME280;52144;48.040;-1.594;2023-07-22T04:52:17;101234.84;;;16.93;82.65
46211;BME280;52144;48.040;-1.594;2023-07-22T04:54:44;101232.03;;;17.09;82.24
46211;BME280;52144;48.040;-1.594;2023-07-22T04:57:13;101227.91;;;17.03;82.41
46211;BME280;52144;48.040;-1.594;2023-07-22T04:59:43;101231.22;;;17.21;83.16
46211;BME280;52144;48.040;-1.594;2023-07-22T05:02:11;101233.78;;;17.37;81.01
46211;BME280;52144;48.040;-1.594;2023-07-22T05:04:39;101217.53;;;17.38;80.94
46211;BME280;52144;48.040;-1.594;2023-07-22T05:07:07;101226.50;;;17.52;81.18
46211;BME280;52144;48.040;-1.594;2023-07-22T05:09:37;101224.50;;;17.68;80.89
46211;BME280;52144;48.040;-1.594;2023-07-22T05:12:05;101226.53;;;18.04;80.52
46211;BME280;52144;48.040;-1.594;2023-07-22T05:14:33;101227.75;;;18.26;79.12
46211;BME280;52144;48.040;-1.594;2023-07-22T05:17:01;101232.50;;;18.10;79.93
46211;BME280;52144;48.040;-1.594;2023-07-22T05:19:29;101228.59;;;18.14;81.66
46211;BME280;52144;48.040;-1.594;2023-07-22T05:21:57;101226.00;;;18.25;80.09
46211;BME280;52144;48.040;-1.594;2023-07-22T05:24:25;101231.84;;;18.44;79.49
46211;BME280;52144;48.040;-1.594;2023-07-22T05:26:54;101225.78;;;18.67;78.81
46211;BME280;52144;48.040;-1.594;2023-07-22T05:29:35;101230.72;;;18.86;77.93
46211;BME280;52144;48.040;-1.594;2023-07-22T05:32:04;101229.44;;;18.91;77.12
46211;BME280;52144;48.040;-1.594;2023-07-22T05:34:49;101225.97;;;18.89;78.16
46211;BME280;52144;48.040;-1.594;2023-07-22T05:37:17;101231.34;;;19.02;77.25
46211;BME280;52144;48.040;-1.594;2023-07-22T05:39:44;101223.28;;;18.89;77.72
46211;BME280;52144;48.040;-1.594;2023-07-22T05:42:13;101225.28;;;18.98;76.67
46211;BME280;52144;48.040;-1.594;2023-07-22T05:44:41;101213.53;;;18.99;77.77
46211;BME280;52144;48.040;-1.594;2023-07-22T05:47:09;101216.19;;;19.12;77.42
46211;BME280;52144;48.040;-1.594;2023-07-22T05:49:37;101214.63;;;19.21;77.00
46211;BME280;52144;48.040;-1.594;2023-07-22T05:52:05;101222.41;;;19.26;78.69
46211;BME280;52144;48.040;-1.594;2023-07-22T05:54:33;101217.72;;;19.52;75.81
46211;BME280;52144;48.040;-1.594;2023-07-22T05:57:01;101208.19;;;19.59;74.30
46211;BME280;52144;48.040;-1.594;2023-07-22T05:59:31;101216.00;;;19.51;76.20
46211;BME280;52144;48.040;-1.594;2023-07-22T06:02:02;101217.69;;;19.64;74.45
46211;BME280;52144;48.040;-1.594;2023-07-22T06:04:30;101212.59;;;19.84;73.99
46211;BME280;52144;48.040;-1.594;2023-07-22T06:06:58;101206.50;;;19.93;73.37
46211;BME280;52144;48.040;-1.594;2023-07-22T06:09:25;101209.47;;;20.01;72.64
46211;BME280;52144;48.040;-1.594;2023-07-22T06:11:53;101209.94;;;19.95;73.70
46211;BME280;52144;48.040;-1.594;2023-07-22T06:14:21;101212.38;;;19.98;74.23
46211;BME280;52144;48.040;-1.594;2023-07-22T06:16:50;101216.72;;;20.01;73.68
46211;BME280;52144;48.040;-1.594;2023-07-22T06:19:18;101211.75;;;19.83;74.17
46211;BME280;52144;48.040;-1.594;2023-07-22T06:21:46;101213.47;;;19.84;74.79
46211;BME280;52144;48.040;-1.594;2023-07-22T06:24:14;101214.25;;;19.98;74.57
46211;BME280;52144;48.040;-1.594;2023-07-22T06:26:42;101218.81;;;20.09;73.67
46211;BME280;52144;48.040;-1.594;2023-07-22T06:29:09;101217.09;;;20.19;73.29
46211;BME280;52144;48.040;-1.594;2023-07-22T06:31:37;101223.72;;;20.03;73.80
46211;BME280;52144;48.040;-1.594;2023-07-22T06:34:06;101221.50;;;20.09;75.58
46211;BME280;52144;48.040;-1.594;2023-07-22T06:36:34;101225.47;;;20.16;74.96
46211;BME280;52144;48.040;-1.594;2023-07-22T06:39:02;101225.59;;;20.37;73.66
46211;BME280;52144;48.040;-1.594;2023-07-22T06:41:30;101227.84;;;20.54;73.34
46211;BME280;52144;48.040;-1.594;2023-07-22T06:43:58;101222.59;;;20.64;73.22
46211;BME280;52144;48.040;-1.594;2023-07-22T06:46:25;101221.59;;;20.54;73.97
46211;BME280;52144;48.040;-1.594;2023-07-22T06:48:54;101231.06;;;20.59;73.51
46211;BME280;52144;48.040;-1.594;2023-07-22T06:51:23;101226.94;;;20.31;74.77
46211;BME280;52144;48.040;-1.594;2023-07-22T06:53:50;101229.13;;;20.03;76.75
46211;BME280;52144;48.040;-1.594;2023-07-22T06:56:18;101224.97;;;20.33;75.11
46211;BME280;52144;48.040;-1.594;2023-07-22T06:58:46;101226.88;;;20.44;75.17
46211;BME280;52144;48.040;-1.594;2023-07-22T07:01:16;101231.75;;;20.28;76.09
46211;BME280;52144;48.040;-1.594;2023-07-22T07:03:43;101235.53;;;20.14;76.97
46211;BME280;52144;48.040;-1.594;2023-07-22T07:06:12;101227.91;;;20.19;76.99
46211;BME280;52144;48.040;-1.594;2023-07-22T07:08:41;101223.78;;;20.37;76.55
46211;BME280;52144;48.040;-1.594;2023-07-22T07:11:09;101223.78;;;20.49;76.08
46211;BME280;52144;48.040;-1.594;2023-07-22T07:13:36;101226.97;;;20.42;76.12
46211;BME280;52144;48.040;-1.594;2023-07-22T07:16:20;101220.09;;;20.50;76.37
46211;BME280;52144;48.040;-1.594;2023-07-22T07:18:49;101215.91;;;20.57;76.10
46211;BME280;52144;48.040;-1.594;2023-07-22T07:21:17;101219.94;;;20.96;74.40
46211;BME280;52144;48.040;-1.594;2023-07-22T07:23:47;101220.59;;;20.89;73.71
46211;BME280;52144;48.040;-1.594;2023-07-22T07:26:15;101211.09;;;21.06;72.76
46211;BME280;52144;48.040;-1.594;2023-07-22T07:28:43;101215.44;;;20.74;74.95
46211;BME280;52144;48.040;-1.594;2023-07-22T07:31:11;101208.78;;;20.90;74.28
46211;BME280;52144;48.040;-1.594;2023-07-22T07:33:38;101198.31;;;21.29;72.48
46211;BME280;52144;48.040;-1.594;2023-07-22T07:36:06;101198.47;;;21.59;68.76
46211;BME280;52144;48.040;-1.594;2023-07-22T07:38:34;101194.38;;;21.44;70.15
46211;BME280;52144;48.040;-1.594;2023-07-22T07:41:05;101202.72;;;21.52;69.45
46211;BME280;52144;48.040;-1.594;2023-07-22T07:43:34;101201.22;;;21.16;70.53
46211;BME280;52144;48.040;-1.594;2023-07-22T07:46:16;101209.13;;;20.96;70.89
46211;BME280;52144;48.040;-1.594;2023-07-22T07:48:46;101204.69;;;21.39;69.96
46211;BME280;52144;48.040;-1.594;2023-07-22T07:51:15;101202.63;;;21.42;68.82
46211;BME280;52144;48.040;-1.594;2023-07-22T07:53:43;101202.78;;;21.30;68.37
46211;BME280;52144;48.040;-1.594;2023-07-22T07:56:14;101202.97;;;21.49;69.40
46211;BME280;52144;48.040;-1.594;2023-07-22T07:58:44;101201.84;;;21.84;67.21
46211;BME280;52144;48.040;-1.594;2023-07-22T08:01:12;101199.47;;;22.42;64.75
46211;BME280;52144;48.040;-1.594;2023-07-22T08:03:41;101206.97;;;22.91;62.01
46211;BME280;52144;48.040;-1.594;2023-07-22T08:06:10;101204.84;;;22.94;62.26
46211;BME280;52144;48.040;-1.594;2023-07-22T08:08:38;101202.06;;;22.84;60.79
46211;BME280;52144;48.040;-1.594;2023-07-22T08:11:07;101203.41;;;22.29;61.72
46211;BME280;52144;48.040;-1.594;2023-07-22T08:13:37;101197.31;;;22.15;62.70
46211;BME280;52144;48.040;-1.594;2023-07-22T08:16:07;101195.50;;;21.74;64.33
46211;BME280;52144;48.040;-1.594;2023-07-22T08:18:35;101195.03;;;21.57;64.58
46211;BME280;52144;48.040;-1.594;2023-07-22T08:21:05;101196.31;;;22.37;62.29
46211;BME280;52144;48.040;-1.594;2023-07-22T08:23:34;101195.00;;;22.62;62.04
46211;BME280;52144;48.040;-1.594;2023-07-22T08:26:03;101199.00;;;22.07;64.19
46211;BME280;52144;48.040;-1.594;2023-07-22T08:28:32;101197.06;;;21.97;64.00
46211;BME280;52144;48.040;-1.594;2023-07-22T08:31:01;101200.28;;;22.12;64.59
46211;BME280;52144;48.040;-1.594;2023-07-22T08:33:30;101196.84;;;22.10;64.57
46211;BME280;52144;48.040;-1.594;2023-07-22T08:36:07;101203.50;;;21.96;65.12
46211;BME280;52144;48.040;-1.594;2023-07-22T08:38:35;101181.44;;;22.11;64.06
46211;BME280;52144;48.040;-1.594;2023-07-22T08:41:03;101186.25;;;22.59;62.94
46211;BME280;52144;48.040;-1.594;2023-07-22T08:43:34;101187.69;;;22.63;61.79
46211;BME280;52144;48.040;-1.594;2023-07-22T08:46:05;101187.59;;;22.13;63.59
46211;BME280;52144;48.040;-1.594;2023-07-22T08:48:34;101184.88;;;22.74;61.94
46211;BME280;52144;48.040;-1.594;2023-07-22T08:51:06;101183.91;;;22.44;62.62
46211;BME280;52144;48.040;-1.594;2023-07-22T08:53:37;101192.03;;;22.66;61.87
46211;BME280;52144;48.040;-1.594;2023-07-22T08:56:05;101191.22;;;22.84;60.63
46211;BME280;52144;48.040;-1.594;2023-07-22T08:58:34;101192.59;;;22.38;61.27
46211;BME280;52144;48.040;-1.594;2023-07-22T09:01:05;101188.00;;;21.87;63.08
46211;BME280;52144;48.040;-1.594;2023-07-22T09:03:33;101189.78;;;22.19;62.58
46211;BME280;52144;48.040;-1.594;2023-07-22T09:06:01;101193.50;;;21.97;62.80
46211;BME280;52144;48.040;-1.594;2023-07-22T09:08:31;101185.44;;;21.53;65.03
46211;BME280;52144;48.040;-1.594;2023-07-22T09:10:59;101186.59;;;22.14;63.81
46211;BME280;52144;48.040;-1.594;2023-07-22T09:13:28;101195.63;;;23.36;60.30
46211;BME280;52144;48.040;-1.594;2023-07-22T09:15:57;101184.75;;;23.65;58.83
46211;BME280;52144;48.040;-1.594;2023-07-22T09:18:27;101186.28;;;22.69;59.62
46211;BME280;52144;48.040;-1.594;2023-07-22T09:20:55;101192.22;;;22.53;61.54
46211;BME280;52144;48.040;-1.594;2023-07-22T09:23:32;101184.03;;;22.83;60.52
46211;BME280;52144;48.040;-1.594;2023-07-22T09:26:08;101182.75;;;22.88;59.62
46211;BME280;52144;48.040;-1.594;2023-07-22T09:28:51;101183.03;;;22.75;59.63
46211;BME280;52144;48.040;-1.594;2023-07-22T09:31:20;101184.75;;;23.36;58.36
46211;BME280;52144;48.040;-1.594;2023-07-22T09:33:50;101182.16;;;23.44;57.55
46211;BME280;52144;48.040;-1.594;2023-07-22T09:36:20;101180.34;;;22.84;57.45
46211;BME280;52144;48.040;-1.594;2023-07-22T09:38:59;101184.03;;;23.34;57.16
46211;BME280;52144;48.040;-1.594;2023-07-22T09:41:29;101174.03;;;23.25;56.44
46211;BME280;52144;48.040;-1.594;2023-07-22T09:44:01;101179.16;;;23.76;55.58
46211;BME280;52144;48.040;-1.594;2023-07-22T09:46:31;101170.94;;;24.06;55.11
46211;BME280;52144;48.040;-1.594;2023-07-22T09:49:04;101171.63;;;24.27;54.37
46211;BME280;52144;48.040;-1.594;2023-07-22T09:51:33;101165.56;;;23.96;54.60
46211;BME280;52144;48.040;-1.594;2023-07-22T09:54:19;101169.44;;;23.54;53.89
46211;BME280;52144;48.040;-1.594;2023-07-22T09:56:49;101174.41;;;22.60;54.86
46211;BME280;52144;48.040;-1.594;2023-07-22T09:59:18;101169.16;;;22.68;55.07
46211;BME280;52144;48.040;-1.594;2023-07-22T10:01:48;101166.97;;;23.02;55.14
46211;BME280;52144;48.040;-1.594;2023-07-22T10:04:20;101160.13;;;23.28;55.31
46211;BME280;52144;48.040;-1.594;2023-07-22T10:06:49;101168.59;;;23.25;55.55
46211;BME280;52144;48.040;-1.594;2023-07-22T10:09:19;101167.84;;;23.71;53.40
46211;BME280;52144;48.040;-1.594;2023-07-22T10:11:49;101169.19;;;22.88;55.74
46211;BME280;52144;48.040;-1.594;2023-07-22T10:14:17;101161.72;;;23.20;55.90
46211;BME280;52144;48.040;-1.594;2023-07-22T10:16:46;101162.97;;;23.94;53.57
46211;BME280;52144;48.040;-1.594;2023-07-22T10:19:14;101161.19;;;24.22;53.26
46211;BME280;52144;48.040;-1.594;2023-07-22T10:21:43;101170.69;;;23.99;52.96
46211;BME280;52144;48.040;-1.594;2023-07-22T10:24:12;101156.94;;;24.00;53.37
46211;BME280;52144;48.040;-1.594;2023-07-22T10:26:40;101155.50;;;24.43;52.89
46211;BME280;52144;48.040;-1.594;2023-07-22T10:29:13;101153.50;;;24.08;51.99
46211;BME280;52144;48.040;-1.594;2023-07-22T10:31:41;101156.97;;;23.81;53.43
46211;BME280;52144;48.040;-1.594;2023-07-22T10:34:09;101145.53;;;23.48;53.82
46211;BME280;52144;48.040;-1.594;2023-07-22T10:36:37;101146.09;;;23.42;53.56
46211;BME280;52144;48.040;-1.594;2023-07-22T10:39:06;101145.47;;;24.07;53.05
46211;BME280;52144;48.040;-1.594;2023-07-22T10:41:38;101147.22;;;23.88;52.34
46211;BME280;52144;48.040;-1.594;2023-07-22T10:44:09;101149.53;;;23.73;53.82
46211;BME280;52144;48.040;-1.594;2023-07-22T10:46:39;101143.69;;;24.25;52.29
46211;BME280;52144;48.040;-1.594;2023-07-22T10:49:11;101143.03;;;24.51;52.34
46211;BME280;52144;48.040;-1.594;2023-07-22T10:51:39;101147.31;;;24.53;52.38
46211;BME280;52144;48.040;-1.594;2023-07-22T10:54:12;101135.38;;;24.27;51.97
46211;BME280;52144;48.040;-1.594;2023-07-22T10:56:41;101138.75;;;24.38;52.31
46211;BME280;52144;48.040;-1.594;2023-07-22T10:59:10;101133.00;;;24.41;51.73
46211;BME280;52144;48.040;-1.594;2023-07-22T11:01:38;101121.47;;;23.82;52.89
46211;BME280;52144;48.040;-1.594;2023-07-22T11:04:23;101121.50;;;24.48;52.37
46211;BME280;52144;48.040;-1.594;2023-07-22T11:07:12;101106.69;;;25.23;50.05
46211;BME280;52144;48.040;-1.594;2023-07-22T11:09:42;101114.94;;;24.96;50.40
46211;BME280;52144;48.040;-1.594;2023-07-22T11:12:14;101106.78;;;24.68;50.75
46211;BME280;52144;48.040;-1.594;2023-07-22T11:14:47;101106.75;;;25.50;48.25
46211;BME280;52144;48.040;-1.594;2023-07-22T11:17:16;101109.16;;;24.99;49.35
46211;BME280;52144;48.040;-1.594;2023-07-22T11:19:45;101102.31;;;25.49;48.82
46211;BME280;52144;48.040;-1.594;2023-07-22T11:22:13;101097.31;;;24.72;48.07
46211;BME280;52144;48.040;-1.594;2023-07-22T11:24:42;101086.50;;;24.98;48.42
46211;BME280;52144;48.040;-1.594;2023-07-22T11:27:10;101089.41;;;25.33;47.24
46211;BME280;52144;48.040;-1.594;2023-07-22T11:29:38;101077.34;;;24.99;48.24
46211;BME280;52144;48.040;-1.594;2023-07-22T11:32:07;101077.28;;;25.53;47.32
46211;BME280;52144;48.040;-1.594;2023-07-22T11:34:42;101073.28;;;25.66;47.59
46211;BME280;52144;48.040;-1.594;2023-07-22T11:37:11;101077.00;;;25.38;47.13
46211;BME280;52144;48.040;-1.594;2023-07-22T11:39:39;101069.09;;;25.53;47.35
46211;BME280;52144;48.040;-1.594;2023-07-22T11:42:09;101066.69;;;25.50;48.33
46211;BME280;52144;48.040;-1.594;2023-07-22T11:44:38;101068.47;;;25.59;48.63
46211;BME280;52144;48.040;-1.594;2023-07-22T11:47:07;101062.69;;;26.23;46.77
46211;BME280;52144;48.040;-1.594;2023-07-22T11:49:36;101062.25;;;25.75;46.58
46211;BME280;52144;48.040;-1.594;2023-07-22T11:52:06;101069.00;;;25.89;46.40
46211;BME280;52144;48.040;-1.594;2023-07-22T11:54:36;101056.38;;;25.62;46.83
46211;BME280;52144;48.040;-1.594;2023-07-22T11:57:13;101056.28;;;25.28;47.03
46211;BME280;52144;48.040;-1.594;2023-07-22T11:59:43;101049.75;;;25.02;47.35
46211;BME280;52144;48.040;-1.594;2023-07-22T12:02:13;101047.88;;;25.65;47.06
46211;BME280;52144;48.040;-1.594;2023-07-22T12:04:41;101050.38;;;25.58;47.29
46211;BME280;52144;48.040;-1.594;2023-07-22T12:07:21;101046.69;;;26.28;44.44
46211;BME280;52144;48.040;-1.594;2023-07-22T12:09:49;101050.81;;;25.72;46.09
46211;BME280;52144;48.040;-1.594;2023-07-22T12:12:19;101042.34;;;25.83;46.84
46211;BME280;52144;48.040;-1.594;2023-07-22T12:14:47;101041.59;;;25.99;45.34
46211;BME280;52144;48.040;-1.594;2023-07-22T12:17:15;101040.22;;;25.69;47.02
46211;BME280;52144;48.040;-1.594;2023-07-22T12:19:51;101024.94;;;25.84;46.94
46211;BME280;52144;48.040;-1.594;2023-07-22T12:22:19;101028.63;;;26.01;46.58
46211;BME280;52144;48.040;-1.594;2023-07-22T12:24:47;101031.81;;;26.90;45.61
46211;BME280;52144;48.040;-1.594;2023-07-22T12:27:15;101026.03;;;27.42;44.02
46211;BME280;52144;48.040;-1.594;2023-07-22T12:29:44;101025.84;;;27.60;44.25
46211;BME280;52144;48.040;-1.594;2023-07-22T12:32:12;101014.19;;;26.68;44.74
46211;BME280;52144;48.040;-1.594;2023-07-22T12:34:39;101012.84;;;26.80;44.23
46211;BME280;52144;48.040;-1.594;2023-07-22T12:37:07;101011.66;;;26.99;43.60
46211;BME280;52144;48.040;-1.594;2023-07-22T12:39:35;101011.25;;;26.53;44.22
46211;BME280;52144;48.040;-1.594;2023-07-22T12:42:03;101004.63;;;26.72;43.89
46211;BME280;52144;48.040;-1.594;2023-07-22T12:44:31;101002.94;;;27.36;43.18
46211;BME280;52144;48.040;-1.594;2023-07-22T12:47:00;101014.91;;;26.94;44.85
46211;BME280;52144;48.040;-1.594;2023-07-22T12:49:28;101009.88;;;26.57;44.85